sensor_id;sensor_type;location;lat;lon;timestamp;temperature;humidity
15656;DHT22;7928;43.614;1.456;2024-03-22T00:02:03;16.10;99.90
15656;DHT22;7928;43.614;1.456;2024-03-22T00:04:29;16.10;99.90
15656;DHT22;7928;43.614;1.456;2024-03-22T00:06:56;16.10;99.90
15656;DHT22;7928;43.614;1.456;2024-03-22T00:09:23;16.10;99.90
15656;DHT22;7928;43.614;1.456;2024-03-22T00:11:50;16.00;99.90
15656;DHT22;7928;43.614;1.456;2024-03-22T00:14:16;16.00;99.90
15656;DHT22;7928;43.614;1.456;2024-03-22T00:16:43;16.00;99.90
15656;DHT22;7928;43.614;1.456;2024-03-22T00:19:10;16.00;99.90
15656;DHT22;7928;43.614;1.456;2024-03-22T00:21:37;16.00;99.90
15656;DHT22;7928;43.614;1.456;2024-03-22T00:24:03;16.00;99.90
15656;DHT22;7928;43.614;1.456;2024-03-22T00:26:30;16.00;99.90
15656;DHT22;7928;43.614;1.456;2024-03-22T00:28:56;16.00;99.90
15656;DHT22;7928;43.614;1.456;2024-03-22T00:31:24;15.90;99.90
15656;DHT22;7928;43.614;1.456;2024-03-22T00:33:50;16.00;99.90
15656;DHT22;7928;43.614;1.456;2024-03-22T00:36:19;15.90;99.90
15656;DHT22;7928;43.614;1.456;2024-03-22T00:38:45;15.90;99.90
15656;DHT22;7928;43.614;1.456;2024-03-22T00:41:12;15.90;99.90
15656;DHT22;7928;43.614;1.456;2024-03-22T00:43:38;15.90;99.90
15656;DHT22;7928;43.614;1.456;2024-03-22T00:46:05;15.90;99.90
15656;DHT22;7928;43.614;1.456;2024-03-22T00:48:31;15.90;99.90
15656;DHT22;7928;43.614;1.456;2024-03-22T00:50:58;15.90;99.90
15656;DHT22;7928;43.614;1.456;2024-03-22T00:53:27;15.90;99.90
15656;DHT22;7928;43.614;1.456;2024-03-22T00:55:55;15.90;99.90
15656;DHT22;7928;43.614;1.456;2024-03-22T00:58:21;15.90;99.90
15656;DHT22;7928;43.614;1.456;2024-03-22T01:00:48;15.90;99.90
15656;DHT22;7928;43.614;1.456;2024-03-22T01:03:14;15.90;99.90
15656;DHT22;7928;43.614;1.456;2024-03-22T01:05:41;15.90;99.90
15656;DHT22;7928;43.614;1.456;2024-03-22T01:08:08;15.90;99.90
15656;DHT22;7928;43.614;1.456;2024-03-22T01:10:36;15.90;99.90
15656;DHT22;7928;43.614;1.456;2024-03-22T01:13:02;15.80;99.90
15656;DHT22;7928;43.614;1.456;2024-03-22T01:15:30;15.90;99.90
15656;DHT22;7928;43.614;1.456;2024-03-22T01:17:56;15.80;99.90
15656;DHT22;7928;43.614;1.456;2024-03-22T01:20:23;15.80;99.90
15656;DHT22;7928;43.614;1.456;2024-03-22T01:22:49;15.80;99.90
15656;DHT22;7928;43.614;1.456;2024-03-22T01:25:16;15.70;99.90
15656;DHT22;7928;43.614;1.456;2024-03-22T01:27:44;15.70;99.90
15656;DHT22;7928;43.614;1.456;2024-03-22T01:30:11;15.70;99.90
15656;DHT22;7928;43.614;1.456;2024-03-22T01:32:37;15.70;99.90
15656;DHT22;7928;43.614;1.456;2024-03-22T01:35:05;15.70;99.90
15656;DHT22;7928;43.614;1.456;2024-03-22T01:37:31;15.60;99.90
15656;DHT22;7928;43.614;1.456;2024-03-22T01:39:58;15.60;99.90
15656;DHT22;7928;43.614;1.456;2024-03-22T01:42:24;15.60;99.90
15656;DHT22;7928;43.614;1.456;2024-03-22T01:44:53;15.50;99.90
15656;DHT22;7928;43.614;1.456;2024-03-22T01:47:19;15.50;99.90
15656;DHT22;7928;43.614;1.456;2024-03-22T01:49:47;15.50;99.90
15656;DHT22;7928;43.614;1.456;2024-03-22T01:52:14;15.40;99.90
15656;DHT22;7928;43.614;1.456;2024-03-22T01:54:41;15.40;99.90
15656;DHT22;7928;43.614;1.456;2024-03-22T01:57:08;15.40;99.90
15656;DHT22;7928;43.614;1.456;2024-03-22T01:59:35;15.40;99.90
15656;DHT22;7928;43.614;1.456;2024-03-22T02:02:03;15.30;99.90
15656;DHT22;7928;43.614;1.456;2024-03-22T02:04:30;15.30;99.90
15656;DHT22;7928;43.614;1.456;2024-03-22T02:06:56;15.30;99.90
15656;DHT22;7928;43.614;1.456;2024-03-22T02:09:24;15.20;99.90
15656;DHT22;7928;43.614;1.456;2024-03-22T02:11:50;15.20;99.90
15656;DHT22;7928;43.614;1.456;2024-03-22T02:14:17;15.20;99.90
15656;DHT22;7928;43.614;1.456;2024-03-22T02:16:43;15.10;99.90
15656;DHT22;7928;43.614;1.456;2024-03-22T02:19:12;15.10;99.90
15656;DHT22;7928;43.614;1.456;2024-03-22T02:21:38;15.10;99.90
15656;DHT22;7928;43.614;1.456;2024-03-22T02:24:07;15.50;99.90
15656;DHT22;7928;43.614;1.456;2024-03-22T02:26:33;15.10;99.90
15656;DHT22;7928;43.614;1.456;2024-03-22T02:29:00;15.10;99.90
15656;DHT22;7928;43.614;1.456;2024-03-22T02:31:26;15.00;99.90
15656;DHT22;7928;43.614;1.456;2024-03-22T02:33:53;14.90;99.90
15656;DHT22;7928;43.614;1.456;2024-03-22T02:36:19;14.90;99.90
15656;DHT22;7928;43.614;1.456;2024-03-22T02:38:46;14.80;99.90
15656;DHT22;7928;43.614;1.456;2024-03-22T02:41:13;14.80;99.90
15656;DHT22;7928;43.614;1.456;2024-03-22T02:43:40;14.80;99.90
15656;DHT22;7928;43.614;1.456;2024-03-22T02:46:06;14.80;99.90
15656;DHT22;7928;43.614;1.456;2024-03-22T02:48:33;14.80;99.90
15656;DHT22;7928;43.614;1.456;2024-03-22T02:51:00;14.80;99.90
15656;DHT22;7928;43.614;1.456;2024-03-22T02:53:27;14.70;99.90
15656;DHT22;7928;43.614;1.456;2024-03-22T02:55:53;14.70;99.90
15656;DHT22;7928;43.614;1.456;2024-03-22T02:58:21;14.70;99.90
15656;DHT22;7928;43.614;1.456;2024-03-22T03:00:47;14.70;99.90
15656;DHT22;7928;43.614;1.456;2024-03-22T03:03:14;14.70;99.90
15656;DHT22;7928;43.614;1.456;2024-03-22T03:05:41;14.70;99.90
15656;DHT22;7928;43.614;1.456;2024-03-22T03:08:09;14.60;99.90
15656;DHT22;7928;43.614;1.456;2024-03-22T03:10:35;14.60;99.90
15656;DHT22;7928;43.614;1.456;2024-03-22T03:13:03;14.60;99.90
15656;DHT22;7928;43.614;1.456;2024-03-22T03:15:30;14.60;99.90
15656;DHT22;7928;43.614;1.456;2024-03-22T03:17:57;14.50;99.90
15656;DHT22;7928;43.614;1.456;2024-03-22T03:20:24;14.50;99.90
15656;DHT22;7928;43.614;1.456;2024-03-22T03:22:52;14.50;99.90
15656;DHT22;7928;43.614;1.456;2024-03-22T03:25:18;14.40;99.90
15656;DHT22;7928;43.614;1.456;2024-03-22T03:27:45;14.40;99.90
15656;DHT22;7928;43.614;1.456;2024-03-22T03:30:11;14.30;99.90
15656;DHT22;7928;43.614;1.456;2024-03-22T03:32:40;14.30;99.90
15656;DHT22;7928;43.614;1.456;2024-03-22T03:35:06;14.20;99.90
15656;DHT22;7928;43.614;1.456;2024-03-22T03:39:59;14.20;99.90
15656;DHT22;7928;43.614;1.456;2024-03-22T03:42:26;14.20;99.90
15656;DHT22;7928;43.614;1.456;2024-03-22T03:44:52;14.20;99.90
15656;DHT22;7928;43.614;1.456;2024-03-22T03:47:19;14.10;99.90
15656;DHT22;7928;43.614;1.456;2024-03-22T03:49:47;14.00;99.90
15656;DHT22;7928;43.614;1.456;2024-03-22T03:52:14;14.00;99.90
15656;DHT22;7928;43.614;1.456;2024-03-22T03:54:40;14.00;99.90
15656;DHT22;7928;43.614;1.456;2024-03-22T03:57:07;14.00;99.90
15656;DHT22;7928;43.614;1.456;2024-03-22T03:59:33;13.90;99.90
15656;DHT22;7928;43.614;1.456;2024-03-22T04:02:00;13.90;99.90
15656;DHT22;7928;43.614;1.456;2024-03-22T04:04:26;13.90;99.90
15656;DHT22;7928;43.614;1.456;2024-03-22T04:06:55;13.90;99.90
15656;DHT22;7928;43.614;1.456;2024-03-22T04:09:21;13.80;99.90
15656;DHT22;7928;43.614;1.456;2024-03-22T04:11:48;13.80;99.90
15656;DHT22;7928;43.614;1.456;2024-03-22T04:14:14;13.80;99.90
15656;DHT22;7928;43.614;1.456;2024-03-22T04:16:40;13.80;99.90
15656;DHT22;7928;43.614;1.456;2024-03-22T04:19:06;13.80;99.90
15656;DHT22;7928;43.614;1.456;2024-03-22T04:21:34;13.90;99.90
15656;DHT22;7928;43.614;1.456;2024-03-22T04:24:01;13.90;99.90
15656;DHT22;7928;43.614;1.456;2024-03-22T04:26:28;14.00;99.90
15656;DHT22;7928;43.614;1.456;2024-03-22T04:28:54;14.00;99.90
15656;DHT22;7928;43.614;1.456;2024-03-22T04:31:21;14.00;99.90
15656;DHT22;7928;43.614;1.456;2024-03-22T04:33:47;14.00;99.90
15656;DHT22;7928;43.614;1.456;2024-03-22T04:36:15;14.00;99.90
15656;DHT22;7928;43.614;1.456;2024-03-22T04:38:41;14.00;99.90
15656;DHT22;7928;43.614;1.456;2024-03-22T04:41:09;14.00;99.90
15656;DHT22;7928;43.614;1.456;2024-03-22T04:43:38;14.00;99.90
15656;DHT22;7928;43.614;1.456;2024-03-22T04:46:05;14.00;99.90
15656;DHT22;7928;43.614;1.456;2024-03-22T04:48:31;14.00;99.90
15656;DHT22;7928;43.614;1.456;2024-03-22T04:50:58;14.00;99.90
15656;DHT22;7928;43.614;1.456;2024-03-22T04:53:24;13.90;99.90
15656;DHT22;7928;43.614;1.456;2024-03-22T04:55:51;14.00;99.90
15656;DHT22;7928;43.614;1.456;2024-03-22T04:58:20;13.90;99.90
15656;DHT22;7928;43.614;1.456;2024-03-22T05:00:47;13.90;99.90
15656;DHT22;7928;43.614;1.456;2024-03-22T05:03:14;13.90;99.90
15656;DHT22;7928;43.614;1.456;2024-03-22T05:05:42;13.90;99.90
15656;DHT22;7928;43.614;1.456;2024-03-22T05:08:08;13.90;99.90
15656;DHT22;7928;43.614;1.456;2024-03-22T05:10:36;13.90;99.90
15656;DHT22;7928;43.614;1.456;2024-03-22T05:13:02;13.80;99.90
15656;DHT22;7928;43.614;1.456;2024-03-22T05:15:31;13.80;99.90
15656;DHT22;7928;43.614;1.456;2024-03-22T05:17:57;13.70;99.90
15656;DHT22;7928;43.614;1.456;2024-03-22T05:20:25;13.70;99.90
15656;DHT22;7928;43.614;1.456;2024-03-22T05:22:51;13.60;99.90
15656;DHT22;7928;43.614;1.456;2024-03-22T05:25:18;13.60;99.90
15656;DHT22;7928;43.614;1.456;2024-03-22T05:27:45;13.70;99.90
15656;DHT22;7928;43.614;1.456;2024-03-22T05:30:13;13.70;99.90
15656;DHT22;7928;43.614;1.456;2024-03-22T05:32:41;13.70;99.90
15656;DHT22;7928;43.614;1.456;2024-03-22T05:35:08;13.70;99.90
15656;DHT22;7928;43.614;1.456;2024-03-22T05:37:34;13.70;99.90
15656;DHT22;7928;43.614;1.456;2024-03-22T05:40:03;13.70;99.90
15656;DHT22;7928;43.614;1.456;2024-03-22T05:42:30;13.70;99.90
15656;DHT22;7928;43.614;1.456;2024-03-22T05:44:57;13.70;99.90
15656;DHT22;7928;43.614;1.456;2024-03-22T05:47:23;13.70;99.90
15656;DHT22;7928;43.614;1.456;2024-03-22T05:49:52;13.70;99.90
15656;DHT22;7928;43.614;1.456;2024-03-22T05:52:18;13.70;99.90
15656;DHT22;7928;43.614;1.456;2024-03-22T05:54:45;13.70;99.90
15656;DHT22;7928;43.614;1.456;2024-03-22T05:57:11;13.50;99.90
15656;DHT22;7928;43.614;1.456;2024-03-22T05:59:38;13.50;99.90
15656;DHT22;7928;43.614;1.456;2024-03-22T06:02:05;13.50;99.90
15656;DHT22;7928;43.614;1.456;2024-03-22T06:04:32;13.40;99.90
15656;DHT22;7928;43.614;1.456;2024-03-22T06:06:59;13.40;99.90
15656;DHT22;7928;43.614;1.456;2024-03-22T06:09:29;13.40;99.90
15656;DHT22;7928;43.614;1.456;2024-03-22T06:12:03;13.50;99.90
15656;DHT22;7928;43.614;1.456;2024-03-22T06:14:30;13.50;99.90
15656;DHT22;7928;43.614;1.456;2024-03-22T06:16:56;13.60;99.90
15656;DHT22;7928;43.614;1.456;2024-03-22T06:19:24;13.60;99.90
15656;DHT22;7928;43.614;1.456;2024-03-22T06:21:50;13.60;99.90
15656;DHT22;7928;43.614;1.456;2024-03-22T06:24:19;13.70;99.90
15656;DHT22;7928;43.614;1.456;2024-03-22T06:26:45;13.80;99.90
15656;DHT22;7928;43.614;1.456;2024-03-22T06:29:12;13.80;99.90
15656;DHT22;7928;43.614;1.456;2024-03-22T06:31:38;13.80;99.90
15656;DHT22;7928;43.614;1.456;2024-03-22T06:34:05;13.90;99.90
15656;DHT22;7928;43.614;1.456;2024-03-22T06:36:32;13.90;99.90
15656;DHT22;7928;43.614;1.456;2024-03-22T06:38:59;13.90;99.90
15656;DHT22;7928;43.614;1.456;2024-03-22T06:41:27;13.90;99.90
15656;DHT22;7928;43.614;1.456;2024-03-22T06:43:54;13.80;99.90
15656;DHT22;7928;43.614;1.456;2024-03-22T06:46:20;13.90;99.90
15656;DHT22;7928;43.614;1.456;2024-03-22T06:48:48;13.90;99.90
15656;DHT22;7928;43.614;1.456;2024-03-22T06:51:14;14.00;99.90
15656;DHT22;7928;43.614;1.456;2024-03-22T06:53:41;14.00;99.90
15656;DHT22;7928;43.614;1.456;2024-03-22T06:56:07;14.10;99.90
15656;DHT22;7928;43.614;1.456;2024-03-22T06:58:38;14.10;99.90
15656;DHT22;7928;43.614;1.456;2024-03-22T07:01:06;14.30;99.90
15656;DHT22;7928;43.614;1.456;2024-03-22T07:03:33;14.30;99.90
15656;DHT22;7928;43.614;1.456;2024-03-22T07:05:59;14.40;99.90
15656;DHT22;7928;43.614;1.456;2024-03-22T07:08:27;14.50;99.90
15656;DHT22;7928;43.614;1.456;2024-03-22T07:10:54;14.50;99.90
15656;DHT22;7928;43.614;1.456;2024-03-22T07:13:20;14.60;99.90
15656;DHT22;7928;43.614;1.456;2024-03-22T07:15:48;14.70;99.90
15656;DHT22;7928;43.614;1.456;2024-03-22T07:18:15;14.70;99.90
15656;DHT22;7928;43.614;1.456;2024-03-22T07:20:42;14.70;99.90
15656;DHT22;7928;43.614;1.456;2024-03-22T07:23:08;14.80;99.90
15656;DHT22;7928;43.614;1.456;2024-03-22T07:25:35;14.80;99.90
15656;DHT22;7928;43.614;1.456;2024-03-22T07:28:01;14.90;99.90
15656;DHT22;7928;43.614;1.456;2024-03-22T07:30:28;14.90;99.90
15656;DHT22;7928;43.614;1.456;2024-03-22T07:32:55;15.00;99.90
15656;DHT22;7928;43.614;1.456;2024-03-22T07:35:22;15.10;99.90
15656;DHT22;7928;43.614;1.456;2024-03-22T07:37:50;15.20;99.90
15656;DHT22;7928;43.614;1.456;2024-03-22T07:40:17;15.40;99.90
15656;DHT22;7928;43.614;1.456;2024-03-22T07:42:43;15.50;99.90
15656;DHT22;7928;43.614;1.456;2024-03-22T07:45:10;15.50;99.90
15656;DHT22;7928;43.614;1.456;2024-03-22T07:47:36;15.70;99.90
15656;DHT22;7928;43.614;1.456;2024-03-22T07:50:06;15.80;99.90
15656;DHT22;7928;43.614;1.456;2024-03-22T07:52:32;15.80;99.90
15656;DHT22;7928;43.614;1.456;2024-03-22T07:54:59;15.90;99.90
15656;DHT22;7928;43.614;1.456;2024-03-22T07:57:28;16.00;99.90
15656;DHT22;7928;43.614;1.456;2024-03-22T07:59:56;16.00;99.90
15656;DHT22;7928;43.614;1.456;2024-03-22T08:02:22;16.10;99.90
15656;DHT22;7928;43.614;1.456;2024-03-22T08:04:49;16.20;99.90
15656;DHT22;7928;43.614;1.456;2024-03-22T08:07:17;16.30;99.90
15656;DHT22;7928;43.614;1.456;2024-03-22T08:09:44;16.40;99.90
15656;DHT22;7928;43.614;1.456;2024-03-22T08:12:10;16.50;99.90
15656;DHT22;7928;43.614;1.456;2024-03-22T08:14:37;16.60;99.90
15656;DHT22;7928;43.614;1.456;2024-03-22T08:17:03;16.60;99.90
15656;DHT22;7928;43.614;1.456;2024-03-22T08:19:30;16.70;99.90
15656;DHT22;7928;43.614;1.456;2024-03-22T08:21:56;16.80;99.90
15656;DHT22;7928;43.614;1.456;2024-03-22T08:24:25;16.90;99.90
15656;DHT22;7928;43.614;1.456;2024-03-22T08:26:50;17.00;99.90
15656;DHT22;7928;43.614;1.456;2024-03-22T08:29:17;17.20;99.90
15656;DHT22;7928;43.614;1.456;2024-03-22T08:31:43;17.30;99.90
15656;DHT22;7928;43.614;1.456;2024-03-22T08:34:10;17.30;99.90
15656;DHT22;7928;43.614;1.456;2024-03-22T08:36:36;17.30;99.90
15656;DHT22;7928;43.614;1.456;2024-03-22T08:39:03;17.20;99.90
15656;DHT22;7928;43.614;1.456;2024-03-22T08:41:32;17.30;99.90
15656;DHT22;7928;43.614;1.456;2024-03-22T08:43:59;17.40;99.90
15656;DHT22;7928;43.614;1.456;2024-03-22T08:46:25;17.40;99.90
15656;DHT22;7928;43.614;1.456;2024-03-22T08:48:53;17.50;99.90
15656;DHT22;7928;43.614;1.456;2024-03-22T08:51:20;17.60;99.90
15656;DHT22;7928;43.614;1.456;2024-03-22T08:53:47;17.80;99.90
15656;DHT22;7928;43.614;1.456;2024-03-22T08:56:13;18.00;99.90
15656;DHT22;7928;43.614;1.456;2024-03-22T08:58:42;18.10;99.90
15656;DHT22;7928;43.614;1.456;2024-03-22T09:01:08;18.10;99.90
15656;DHT22;7928;43.614;1.456;2024-03-22T09:03:36;18.30;99.90
15656;DHT22;7928;43.614;1.456;2024-03-22T09:06:02;18.40;99.90
15656;DHT22;7928;43.614;1.456;2024-03-22T09:08:29;18.50;99.90
15656;DHT22;7928;43.614;1.456;2024-03-22T09:10:56;18.70;99.90
15656;DHT22;7928;43.614;1.456;2024-03-22T09:13:25;18.70;99.90
15656;DHT22;7928;43.614;1.456;2024-03-22T09:15:57;18.80;99.90
15656;DHT22;7928;43.614;1.456;2024-03-22T09:18:24;18.90;99.90
15656;DHT22;7928;43.614;1.456;2024-03-22T09:20:50;19.10;99.90
15656;DHT22;7928;43.614;1.456;2024-03-22T09:23:17;19.20;99.90
15656;DHT22;7928;43.614;1.456;2024-03-22T09:25:43;19.40;99.90
15656;DHT22;7928;43.614;1.456;2024-03-22T09:28:10;19.60;99.90
15656;DHT22;7928;43.614;1.456;2024-03-22T09:30:38;19.70;99.90
15656;DHT22;7928;43.614;1.456;2024-03-22T09:33:07;19.80;99.90
15656;DHT22;7928;43.614;1.456;2024-03-22T09:35:33;20.00;99.90
15656;DHT22;7928;43.614;1.456;2024-03-22T09:38:00;19.90;99.90
15656;DHT22;7928;43.614;1.456;2024-03-22T09:40:26;20.10;99.90
15656;DHT22;7928;43.614;1.456;2024-03-22T09:42:54;20.30;99.90
15656;DHT22;7928;43.614;1.456;2024-03-22T09:45:21;20.20;99.90
15656;DHT22;7928;43.614;1.456;2024-03-22T09:47:50;20.40;99.90
15656;DHT22;7928;43.614;1.456;2024-03-22T09:50:20;20.70;99.90
15656;DHT22;7928;43.614;1.456;2024-03-22T09:52:47;20.60;99.90
15656;DHT22;7928;43.614;1.456;2024-03-22T09:55:14;20.70;99.90
15656;DHT22;7928;43.614;1.456;2024-03-22T09:57:42;20.60;99.90
15656;DHT22;7928;43.614;1.456;2024-03-22T10:00:11;20.60;99.90
15656;DHT22;7928;43.614;1.456;2024-03-22T10:02:40;20.70;99.90
15656;DHT22;7928;43.614;1.456;2024-03-22T10:05:06;20.70;99.90
15656;DHT22;7928;43.614;1.456;2024-03-22T10:07:35;20.80;99.90
15656;DHT22;7928;43.614;1.456;2024-03-22T10:10:01;20.80;99.90
15656;DHT22;7928;43.614;1.456;2024-03-22T10:12:28;20.90;99.90
15656;DHT22;7928;43.614;1.456;2024-03-22T10:14:54;21.20;99.90
15656;DHT22;7928;43.614;1.456;2024-03-22T10:17:21;21.50;99.90
15656;DHT22;7928;43.614;1.456;2024-03-22T10:19:49;21.90;99.90
15656;DHT22;7928;43.614;1.456;2024-03-22T10:22:17;22.20;99.90
15656;DHT22;7928;43.614;1.456;2024-03-22T10:24:45;22.40;99.90
15656;DHT22;7928;43.614;1.456;2024-03-22T10:27:12;22.50;99.90
15656;DHT22;7928;43.614;1.456;2024-03-22T10:29:39;22.50;99.90
15656;DHT22;7928;43.614;1.456;2024-03-22T10:32:06;22.70;99.90
15656;DHT22;7928;43.614;1.456;2024-03-22T10:34:35;22.80;99.90
15656;DHT22;7928;43.614;1.456;2024-03-22T10:37:02;22.80;99.90
15656;DHT22;7928;43.614;1.456;2024-03-22T10:39:30;22.60;99.90
15656;DHT22;7928;43.614;1.456;2024-03-22T10:41:59;22.60;99.90
15656;DHT22;7928;43.614;1.456;2024-03-22T10:44:25;22.70;99.90
15656;DHT22;7928;43.614;1.456;2024-03-22T10:46:54;22.60;99.90
15656;DHT22;7928;43.614;1.456;2024-03-22T10:49:21;23.00;99.90
15656;DHT22;7928;43.614;1.456;2024-03-22T10:51:51;22.80;99.90
15656;DHT22;7928;43.614;1.456;2024-03-22T10:54:20;23.70;99.90
15656;DHT22;7928;43.614;1.456;2024-03-22T10:56:48;24.90;99.90
15656;DHT22;7928;43.614;1.456;2024-03-22T10:59:18;26.00;99.90
15656;DHT22;7928;43.614;1.456;2024-03-22T11:01:46;27.10;99.90
15656;DHT22;7928;43.614;1.456;2024-03-22T11:04:14;27.70;99.90
15656;DHT22;7928;43.614;1.456;2024-03-22T11:06:47;27.90;99.90
15656;DHT22;7928;43.614;1.456;2024-03-22T11:09:18;27.60;99.90
15656;DHT22;7928;43.614;1.456;2024-03-22T11:11:48;28.20;99.90
15656;DHT22;7928;43.614;1.456;2024-03-22T11:14:18;28.70;99.90
15656;DHT22;7928;43.614;1.456;2024-03-22T11:16:46;29.40;99.90
15656;DHT22;7928;43.614;1.456;2024-03-22T11:19:12;30.00;99.90
15656;DHT22;7928;43.614;1.456;2024-03-22T11:21:39;30.50;99.90
15656;DHT22;7928;43.614;1.456;2024-03-22T11:24:05;30.70;99.90
15656;DHT22;7928;43.614;1.456;2024-03-22T11:26:32;30.40;99.90
15656;DHT22;7928;43.614;1.456;2024-03-22T11:28:58;30.70;99.90
15656;DHT22;7928;43.614;1.456;2024-03-22T11:31:27;30.90;99.90
15656;DHT22;7928;43.614;1.456;2024-03-22T11:33:54;31.70;99.90
15656;DHT22;7928;43.614;1.456;2024-03-22T11:36:21;32.10;99.90
15656;DHT22;7928;43.614;1.456;2024-03-22T11:38:47;32.60;99.90
15656;DHT22;7928;43.614;1.456;2024-03-22T11:41:17;32.50;99.90
15656;DHT22;7928;43.614;1.456;2024-03-22T11:43:45;31.70;99.90
15656;DHT22;7928;43.614;1.456;2024-03-22T11:46:13;32.30;99.90
15656;DHT22;7928;43.614;1.456;2024-03-22T11:48:41;33.20;99.90
15656;DHT22;7928;43.614;1.456;2024-03-22T11:51:09;33.40;99.50
15656;DHT22;7928;43.614;1.456;2024-03-22T11:53:36;33.60;98.90
15656;DHT22;7928;43.614;1.456;2024-03-22T11:56:03;33.20;98.40
15656;DHT22;7928;43.614;1.456;2024-03-22T11:58:31;33.10;98.30
15656;DHT22;7928;43.614;1.456;2024-03-22T12:00:58;32.30;98.50
15656;DHT22;7928;43.614;1.456;2024-03-22T12:03:24;32.50;98.30
15656;DHT22;7928;43.614;1.456;2024-03-22T12:05:54;32.90;98.40
15656;DHT22;7928;43.614;1.456;2024-03-22T12:08:20;32.20;97.30
15656;DHT22;7928;43.614;1.456;2024-03-22T12:10:47;32.00;97.30
15656;DHT22;7928;43.614;1.456;2024-03-22T12:13:13;32.40;97.00
15656;DHT22;7928;43.614;1.456;2024-03-22T12:15:40;32.40;96.60
15656;DHT22;7928;43.614;1.456;2024-03-22T12:18:06;33.00;97.00
15656;DHT22;7928;43.614;1.456;2024-03-22T12:20:34;33.70;95.90
15656;DHT22;7928;43.614;1.456;2024-03-22T12:23:01;34.40;94.30
15656;DHT22;7928;43.614;1.456;2024-03-22T12:25:28;34.40;94.00
15656;DHT22;7928;43.614;1.456;2024-03-22T12:27:54;34.60;92.70
15656;DHT22;7928;43.614;1.456;2024-03-22T12:30:22;34.50;91.70
15656;DHT22;7928;43.614;1.456;2024-03-22T12:32:48;33.90;91.90
15656;DHT22;7928;43.614;1.456;2024-03-22T12:35:15;34.60;92.50
15656;DHT22;7928;43.614;1.456;2024-03-22T12:37:41;35.00;90.40
15656;DHT22;7928;43.614;1.456;2024-03-22T12:40:10;33.90;89.80
15656;DHT22;7928;43.614;1.456;2024-03-22T12:42:37;34.10;90.90
15656;DHT22;7928;43.614;1.456;2024-03-22T12:45:05;34.40;90.40
15656;DHT22;7928;43.614;1.456;2024-03-22T12:47:32;34.50;89.10
15656;DHT22;7928;43.614;1.456;2024-03-22T12:49:58;35.00;87.10
15656;DHT22;7928;43.614;1.456;2024-03-22T12:52:25;35.60;86.30
15656;DHT22;7928;43.614;1.456;2024-03-22T12:54:51;36.20;83.30
15656;DHT22;7928;43.614;1.456;2024-03-22T12:57:20;36.50;83.00
15656;DHT22;7928;43.614;1.456;2024-03-22T12:59:46;36.90;80.20
15656;DHT22;7928;43.614;1.456;2024-03-22T13:02:13;36.80;77.50
15656;DHT22;7928;43.614;1.456;2024-03-22T13:04:39;36.70;78.40
15656;DHT22;7928;43.614;1.456;2024-03-22T13:07:06;37.10;79.50
15656;DHT22;7928;43.614;1.456;2024-03-22T13:09:32;37.30;78.70
15656;DHT22;7928;43.614;1.456;2024-03-22T13:11:59;37.50;77.50
15656;DHT22;7928;43.614;1.456;2024-03-22T13:14:26;37.80;74.70
15656;DHT22;7928;43.614;1.456;2024-03-22T13:16:53;37.80;70.90
15656;DHT22;7928;43.614;1.456;2024-03-22T13:19:19;37.40;68.90
15656;DHT22;7928;43.614;1.456;2024-03-22T13:21:46;37.00;71.40
15656;DHT22;7928;43.614;1.456;2024-03-22T13:24:14;36.50;74.20
15656;DHT22;7928;43.614;1.456;2024-03-22T13:26:41;36.60;72.10
15656;DHT22;7928;43.614;1.456;2024-03-22T13:29:07;36.30;71.60
15656;DHT22;7928;43.614;1.456;2024-03-22T13:31:35;37.00;70.90
15656;DHT22;7928;43.614;1.456;2024-03-22T13:34:01;37.80;68.40
15656;DHT22;7928;43.614;1.456;2024-03-22T13:36:29;38.00;66.50
15656;DHT22;7928;43.614;1.456;2024-03-22T13:38:58;36.80;69.50
15656;DHT22;7928;43.614;1.456;2024-03-22T13:41:25;37.80;68.00
15656;DHT22;7928;43.614;1.456;2024-03-22T13:43:51;38.00;67.20
15656;DHT22;7928;43.614;1.456;2024-03-22T13:46:18;38.30;67.50
15656;DHT22;7928;43.614;1.456;2024-03-22T13:48:45;38.00;68.70
15656;DHT22;7928;43.614;1.456;2024-03-22T13:51:13;37.60;66.40
15656;DHT22;7928;43.614;1.456;2024-03-22T13:53:39;37.00;66.70
15656;DHT22;7928;43.614;1.456;2024-03-22T13:56:06;36.50;66.90
15656;DHT22;7928;43.614;1.456;2024-03-22T13:58:32;36.70;64.30
15656;DHT22;7928;43.614;1.456;2024-03-22T14:01:00;37.10;66.10
15656;DHT22;7928;43.614;1.456;2024-03-22T14:03:26;37.60;65.10
15656;DHT22;7928;43.614;1.456;2024-03-22T14:05:54;37.70;64.40
15656;DHT22;7928;43.614;1.456;2024-03-22T14:08:20;37.50;62.70
15656;DHT22;7928;43.614;1.456;2024-03-22T14:10:47;37.30;61.60
15656;DHT22;7928;43.614;1.456;2024-03-22T14:13:13;37.50;60.40
15656;DHT22;7928;43.614;1.456;2024-03-22T14:15:41;37.10;62.90
15656;DHT22;7928;43.614;1.456;2024-03-22T14:18:07;36.70;62.80
15656;DHT22;7928;43.614;1.456;2024-03-22T14:20:35;36.30;64.50
15656;DHT22;7928;43.614;1.456;2024-03-22T14:23:02;36.30;64.70
15656;DHT22;7928;43.614;1.456;2024-03-22T14:25:29;36.10;64.30
15656;DHT22;7928;43.614;1.456;2024-03-22T14:27:57;36.50;64.00
15656;DHT22;7928;43.614;1.456;2024-03-22T14:30:24;36.50;63.40
15656;DHT22;7928;43.614;1.456;2024-03-22T14:32:50;36.80;62.80
15656;DHT22;7928;43.614;1.456;2024-03-22T14:35:18;37.50;59.60
15656;DHT22;7928;43.614;1.456;2024-03-22T14:37:45;38.00;58.70
15656;DHT22;7928;43.614;1.456;2024-03-22T14:40:13;38.30;60.80
15656;DHT22;7928;43.614;1.456;2024-03-22T14:42:40;38.80;59.30
15656;DHT22;7928;43.614;1.456;2024-03-22T14:45:09;38.50;59.50
15656;DHT22;7928;43.614;1.456;2024-03-22T14:47:36;38.00;57.90
15656;DHT22;7928;43.614;1.456;2024-03-22T14:50:03;37.80;60.20
15656;DHT22;7928;43.614;1.456;2024-03-22T14:52:29;37.50;58.10
15656;DHT22;7928;43.614;1.456;2024-03-22T14:54:57;36.80;59.20
15656;DHT22;7928;43.614;1.456;2024-03-22T14:57:24;36.80;60.50
15656;DHT22;7928;43.614;1.456;2024-03-22T14:59:51;36.70;60.10
15656;DHT22;7928;43.614;1.456;2024-03-22T15:02:18;36.90;59.90
15656;DHT22;7928;43.614;1.456;2024-03-22T15:04:45;37.10;60.70
15656;DHT22;7928;43.614;1.456;2024-03-22T15:07:11;37.00;62.70
15656;DHT22;7928;43.614;1.456;2024-03-22T15:09:38;37.10;62.60
15656;DHT22;7928;43.614;1.456;2024-03-22T15:12:04;37.20;63.30
15656;DHT22;7928;43.614;1.456;2024-03-22T15:14:33;37.10;62.10
15656;DHT22;7928;43.614;1.456;2024-03-22T15:16:59;37.50;62.30
15656;DHT22;7928;43.614;1.456;2024-03-22T15:19:26;36.80;60.80
15656;DHT22;7928;43.614;1.456;2024-03-22T15:21:52;36.80;61.00
15656;DHT22;7928;43.614;1.456;2024-03-22T15:24:19;37.10;61.10
15656;DHT22;7928;43.614;1.456;2024-03-22T15:26:45;37.40;62.10
15656;DHT22;7928;43.614;1.456;2024-03-22T15:29:12;37.20;60.20
15656;DHT22;7928;43.614;1.456;2024-03-22T15:31:39;36.90;60.10
15656;DHT22;7928;43.614;1.456;2024-03-22T15:34:06;36.40;60.00
15656;DHT22;7928;43.614;1.456;2024-03-22T15:36:33;36.20;62.40
15656;DHT22;7928;43.614;1.456;2024-03-22T15:39:00;36.20;61.40
15656;DHT22;7928;43.614;1.456;2024-03-22T15:41:26;36.30;62.10
15656;DHT22;7928;43.614;1.456;2024-03-22T15:43:53;36.20;61.10
15656;DHT22;7928;43.614;1.456;2024-03-22T15:46:19;36.10;61.40